x

Buoy I01 - Eastern Maine Shelf (44034) Wave Buoy

3:04 - Fri 27th May 2016 All times are EDT. -4 hours from GMT.

  • Sig Wave height 2.6ft
  • Peak Period 8s
  • Wind
    13mph, 16mph gusts
  • Sea Temp 48°f
  • Air Temp 49°f
  • Sea Pressure 1022.5mb
  • Buoy I01 - Eastern Maine Shelf
  • Buoy I01 - Eastern Maine Shelf

More Historic Weather Station data

Upgrade to MSW Pro to gain access to the past 30 days of data for over 8000 Wavebouys and Weather Stations around the globe.

Join Pro

Comparision Forecast

View Surf forecast
   
ven. 05/27 3:04 2.5ft 8s 13 16 mph 1022.5mb 48f 49f
2:04 2.5ft 8s 11 13 mph 1022.5mb 48f 49f
1:04 2.5ft 8s 7 9 mph 1022.8mb 48f 49f
12:04 2.5ft 8s 7 9 mph 1022.9mb 48f 50f
jeu. 05/26 11:04 2.5ft 8s 11 13 mph 1022.6mb 47f 51f
10:04 2.5ft 8s 11
mph
1021.9mb 47f 52f
9:04 2ft 8s 9 11 mph 1021.1mb 49f 51f
8:04 2.5ft 8s 7
mph
1020.7mb 48f 51f
7:04 2.5ft 8s 2 4 mph 1020.1mb 48f 53f
6:04 2.5ft 8s 7
mph
1019.5mb 49f 53f
5:04 2.5ft 6s 9 11 mph 1019mb 52f 54f
4:04 2.5ft 8s 4 7 mph 1018.2mb 49f 53f
3:04 2.5ft 8s 4 7 mph 1018.2mb 49f 54f
2:04 3ft 8s 7 9 mph 1018.1mb 51f 56f
1:04 2.5ft 8s 7 9 mph 1018mb 50f 55f
12:04 3ft 8s 4 7 mph 1017.9mb 49f 55f
11:04 2.5ft 8s 2 4 mph 1018.1mb 48f 56f
10:04 2.5ft 8s  -  mph - 47f -
9:04 2.5ft 8s 7 9 mph 1017.6mb 47f 52f
8:04 3ft 8s 11 13 mph 1017.4mb 47f 52f
7:04 3.5ft 8s 9 11 mph 1016.8mb 47f 53f
6:04 3ft 8s 7 9 mph 1016.2mb 47f 52f
5:04 3ft 8s 13 16 mph 1015mb 47f 54f
4:04 3ft 8s 7 9 mph 1014.4mb 48f 51f
3:04 3.5ft 8s 7 11 mph 1013.9mb 48f 52f
2:04 3ft 8s 7
mph
1013.5mb 48f 51f
1:04 3ft 8s 9
mph
1013.6mb 48f 49f
12:04 3.5ft 8s 7
mph
1013.4mb 48f 49f
mer. 05/25 11:04 2.5ft 8s 9 11 mph 1013.7mb 48f 49f
10:04 3.5ft 8s 7 9 mph 1013.9mb 48f 49f
9:04 3.5ft 8s 7 9 mph 1013.9mb 48f 48f
8:04 3.5ft 8s 9
mph
1013.9mb 48f 48f
7:04 3.5ft 8s 9 11 mph 1014.4mb 48f 48f
6:04 3.5ft 8s 9 11 mph 1014.1mb 48f 48f
5:04 3ft 8s 11
mph
1014.1mb 48f 48f
4:04 3.5ft 8s 13 16 mph 1014.1mb 48f 48f
3:04 3.5ft 8s 9 11 mph 1014.1mb 48f 48f
2:04 4.5ft 8s 13
mph
1014.3mb 48f 49f
1:04 3.5ft 8s 11 13 mph 1014.9mb 48f 49f
12:04 3.5ft 8s 11
mph
1015.1mb 48f 48f
11:04 3.5ft 8s 4 7 mph 1015.2mb 47f 49f
10:04 3ft 8s  -  2 mph 1015.3mb 48f 50f
9:04 3ft 8s 2
mph
1015.3mb 47f 48f
8:04 2.5ft 8s 7
mph
1015.5mb 47f 48f
7:04 3ft 8s 9 11 mph 1015mb 47f 47f
6:04 2.5ft 8s 7
mph
1014.1mb 47f 47f
5:04 3.5ft 8s 7 9 mph 1014.3mb 47f 47f
4:04 2.5ft 8s 7 9 mph 1014.4mb 47f 48f
3:04 2.5ft 8s 9 11 mph 1013.9mb 47f 47f
2:04 3ft 8s 9 11 mph 1013.6mb 47f 47f
1:04 3ft 8s 7 16 mph 1014.3mb 47f 47f
12:04 3ft 8s 4 7 mph 1014.6mb 47f 47f
mar. 05/24 11:04 3ft 8s 7 9 mph 1014.6mb 47f 47f
10:04 3.5ft 8s 9
mph
1015.2mb 47f 47f
9:04 3.5ft 8s 4 7 mph 1015.4mb 47f 47f
8:04 3.5ft 8s 7
mph
1015.2mb 47f 47f
7:04 3.5ft 8s 7
mph
1015mb 47f 48f
6:04 3.5ft 8s 7
mph
1014.9mb 47f 48f
5:04 3.5ft 8s 7
mph
1015mb 48f 48f
4:04 4ft 8s 9
mph
1015mb 48f 48f
3:04 3.5ft 8s 9 11 mph 1015mb 48f 48f
2:04 3.5ft 11s 11 13 mph 1015.1mb 48f 48f
1:04 4ft 8s 11 13 mph 1015.2mb 48f 48f
12:04 3.5ft 8s 11 13 mph 1015.6mb 48f 48f
11:04 4.5ft 8s 16 18 mph 1015.5mb 48f 47f
10:04 4ft 8s 13 18 mph 1015.9mb 47f 47f
9:04 4.5ft 8s 11 16 mph 1016mb 47f 46f
8:04 4ft 8s 13 18 mph 1015.2mb 47f 46f
5:04 3.5ft 8s 7 9 mph 1015.5mb 47f 46f
4:04 3.5ft 11s 11 13 mph 1015.5mb 48f 46f
3:04 4.5ft 8s 7 9 mph 1014.7mb 48f 47f
2:04 4ft 11s 9 11 mph 1014.1mb 49f 48f
1:04 5ft 11s 4 7 mph 1014.3mb 48f 48f
12:04 5ft 11s 7 9 mph 1014.2mb 48f 48f
lun. 05/23 11:04 5.5ft 11s 7 9 mph 1014.5mb 48f 49f
10:04 6ft 11s 7
mph
1014.1mb 48f 51f
9:04 6ft 11s 4 7 mph 1013.3mb 48f 50f
8:04 5.5ft 8s 7 9 mph 1012.7mb 49f 50f
7:04 6ft 11s 2 4 mph 1013.5mb 48f 50f
6:04 6ft 11s 4 7 mph 1013.1mb 48f 50f
5:04 5ft 11s 7
mph
1012.3mb 48f 52f
4:04 5ft 11s 2
mph
1012.2mb 48f 54f
3:04 5ft 11s 4 7 mph 1011.7mb 49f 52f
2:04 5.5ft 11s 7 9 mph 1011.8mb 48f 53f
1:04 5ft 11s 4 7 mph 1011.4mb 50f 52f
12:04 5ft 11s 7 9 mph 1010.9mb 48f 53f
11:04 5ft 11s 9 11 mph 1010.9mb 47f 54f
10:04 5ft 11s 7 11 mph 1011.2mb 47f 52f
9:04 5ft 11s 11 13 mph 1011.4mb 47f 53f